createdAt,value
2022-10-13T00:00:26.955Z,28.42
2022-10-13T00:00:58.601Z,28.92
2022-10-13T00:01:30.236Z,29.55
2022-10-13T00:02:01.778Z,30.08
2022-10-13T00:02:33.303Z,29.77
2022-10-13T00:03:04.920Z,27.15
2022-10-13T00:03:38.135Z,31.25
2022-10-13T00:04:09.655Z,27.85
2022-10-13T00:04:41.169Z,28.27
2022-10-13T00:05:12.779Z,30.98
2022-10-13T00:05:48.943Z,27.90
2022-10-13T00:06:24.848Z,29.42
2022-10-13T00:06:56.375Z,28.02
2022-10-13T00:07:27.877Z,28.88
2022-10-13T00:08:00.033Z,27.55
2022-10-13T00:08:31.617Z,24.98
2022-10-13T00:09:03.323Z,29.58
2022-10-13T00:09:34.839Z,29.80
2022-10-13T00:10:06.665Z,28.33
2022-10-13T00:10:39.504Z,29.33
2022-10-13T00:11:12.537Z,27.13
2022-10-13T00:11:44.051Z,28.58
2022-10-13T00:12:15.874Z,30.67
2022-10-13T00:12:47.656Z,27.65
2022-10-13T00:13:20.356Z,30.40
2022-10-13T00:13:52.741Z,30.35
2022-10-13T00:14:24.283Z,28.10
2022-10-13T00:14:55.969Z,31.05
2022-10-13T00:15:27.520Z,32.25
2022-10-13T00:15:59.033Z,32.42
2022-10-13T00:16:31.620Z,31.33
2022-10-13T00:17:03.217Z,32.50
2022-10-13T00:17:36.523Z,30.67
2022-10-13T00:18:09.183Z,31.73
2022-10-13T00:18:41.122Z,28.73
2022-10-13T00:19:15.102Z,30.38
2022-10-13T00:19:46.782Z,32.13
2022-10-13T00:20:18.313Z,32.92
2022-10-13T00:20:50.029Z,31.98
2022-10-13T00:21:24.379Z,30.83
2022-10-13T00:21:55.897Z,29.83
2022-10-13T00:22:28.191Z,30.55
2022-10-13T00:22:59.779Z,32.95
2022-10-13T00:23:33.627Z,30.60
2022-10-13T00:24:05.341Z,29.15
2022-10-13T00:24:36.901Z,33.78
2022-10-13T00:25:08.911Z,31.17
2022-10-13T00:25:48.432Z,31.55
2022-10-13T00:26:22.268Z,32.10
2022-10-13T00:26:53.838Z,26.50
2022-10-13T00:27:25.474Z,29.20
2022-10-13T00:27:57.032Z,29.35
2022-10-13T00:28:28.571Z,30.08
2022-10-13T00:29:00.505Z,29.15
2022-10-13T00:29:32.215Z,29.13
2022-10-13T00:30:04.622Z,33.53
2022-10-13T00:30:37.026Z,31.88
2022-10-13T00:31:26.082Z,31.80
2022-10-13T00:31:57.694Z,32.13
2022-10-13T00:32:29.455Z,30.23
2022-10-13T00:33:01.039Z,30.55
2022-10-13T00:33:33.578Z,29.95
2022-10-13T00:34:05.162Z,31.42
2022-10-13T00:34:37.661Z,30.27
2022-10-13T00:35:09.748Z,30.60
2022-10-13T00:35:47.155Z,30.98
2022-10-13T00:36:19.834Z,29.83
2022-10-13T00:36:51.389Z,35.17
2022-10-13T00:37:22.966Z,26.33
2022-10-13T00:37:54.558Z,32.15
2022-10-13T00:38:26.068Z,30.08
2022-10-13T00:38:58.280Z,29.90
2022-10-13T00:39:29.996Z,31.15
2022-10-13T00:40:01.776Z,30.90
2022-10-13T00:40:33.280Z,29.40
2022-10-13T00:41:05.815Z,31.60
2022-10-13T00:41:37.376Z,33.05
2022-10-13T00:42:12.440Z,29.08
2022-10-13T00:42:43.958Z,28.40
2022-10-13T00:43:20.938Z,29.60
2022-10-13T00:44:04.446Z,30.40
2022-10-13T00:45:00.044Z,32.40
2022-10-13T00:45:31.564Z,30.63
2022-10-13T00:46:03.098Z,27.85
2022-10-13T00:46:36.342Z,31.35
2022-10-13T00:47:07.956Z,34.38
2022-10-13T00:47:43.520Z,32.00
2022-10-13T00:48:15.061Z,31.45
2022-10-13T00:48:47.439Z,30.73
2022-10-13T00:49:19.242Z,34.25
2022-10-13T00:49:52.555Z,31.45
2022-10-13T00:50:29.938Z,30.25
2022-10-13T00:51:01.566Z,29.80
2022-10-13T00:51:38.300Z,29.40
2022-10-13T00:52:09.864Z,30.92
2022-10-13T00:52:42.880Z,24.98
2022-10-13T00:53:15.710Z,28.83
2022-10-13T00:53:48.201Z,27.85
2022-10-13T00:54:24.253Z,29.30
2022-10-13T00:54:56.518Z,29.02
2022-10-13T00:55:31.910Z,30.55
2022-10-13T00:56:05.545Z,30.38
2022-10-13T00:56:38.656Z,27.58
2022-10-13T00:57:11.002Z,29.70
2022-10-13T00:57:45.996Z,32.13
2022-10-13T00:58:19.660Z,27.80
2022-10-13T00:58:52.190Z,29.20
2022-10-13T00:59:27.418Z,30.13
2022-10-13T01:00:00.178Z,27.92
2022-10-13T01:00:32.846Z,34.95
2022-10-13T01:01:05.400Z,29.15
2022-10-13T01:01:37.994Z,33.58
2022-10-13T01:02:09.499Z,28.30
2022-10-13T01:02:41.228Z,30.30
2022-10-13T01:03:12.850Z,32.60
2022-10-13T01:03:44.386Z,32.40
2022-10-13T01:04:18.683Z,29.95
2022-10-13T01:04:51.476Z,32.10
2022-10-13T01:05:25.002Z,29.65
2022-10-13T01:05:59.859Z,32.53
2022-10-13T01:06:31.532Z,28.02
2022-10-13T01:07:04.315Z,31.48
2022-10-13T01:07:36.085Z,31.52
2022-10-13T01:08:08.372Z,30.40
2022-10-13T01:08:40.118Z,33.03
2022-10-13T01:09:11.756Z,31.10
2022-10-13T01:09:43.415Z,31.70
2022-10-13T01:10:24.773Z,30.20
2022-10-13T01:11:18.168Z,27.52
2022-10-13T01:12:01.663Z,31.35
2022-10-13T01:12:45.324Z,30.70
2022-10-13T01:13:50.734Z,27.85
2022-10-13T01:14:35.982Z,30.60
2022-10-13T01:15:22.568Z,30.80
2022-10-13T01:15:54.413Z,29.83
2022-10-13T01:16:40.910Z,29.92
2022-10-13T01:17:28.758Z,32.38
2022-10-13T01:18:26.557Z,31.23
2022-10-13T01:19:00.955Z,30.88
2022-10-13T01:20:05.773Z,31.23
2022-10-13T01:20:59.243Z,29.73
2022-10-13T01:21:41.161Z,30.13
2022-10-13T01:22:37.524Z,29.33
2022-10-13T01:23:27.751Z,28.90
2022-10-13T01:24:47.218Z,31.48
2022-10-13T01:25:39.478Z,27.92
2022-10-13T01:26:29.486Z,30.17
2022-10-13T01:27:06.872Z,28.88
2022-10-13T01:27:57.081Z,29.85
2022-10-13T01:28:47.294Z,30.08
2022-10-13T01:29:56.266Z,31.05
2022-10-13T01:30:28.522Z,31.65
2022-10-13T01:31:15.025Z,30.60
2022-10-13T01:32:12.217Z,33.17
2022-10-13T01:33:01.549Z,29.98
2022-10-13T01:33:45.588Z,30.48
2022-10-13T01:34:31.854Z,30.58
2022-10-13T01:35:11.858Z,29.67
2022-10-13T01:36:24.579Z,28.58
2022-10-13T01:37:04.848Z,27.48
2022-10-13T01:37:55.067Z,28.20
2022-10-13T01:38:47.424Z,26.17
2022-10-13T01:39:29.795Z,28.33
2022-10-13T01:40:16.734Z,27.25
2022-10-13T01:40:51.507Z,29.35
2022-10-13T01:41:32.560Z,31.95
2022-10-13T01:42:24.364Z,30.88
2022-10-13T01:43:02.762Z,26.95
2022-10-13T01:43:45.322Z,27.70
2022-10-13T01:44:31.978Z,31.23
2022-10-13T01:45:04.443Z,29.08
2022-10-13T01:45:42.513Z,28.08
2022-10-13T01:46:17.698Z,28.13
2022-10-13T01:46:51.556Z,29.17
2022-10-13T01:47:24.970Z,28.40
2022-10-13T01:47:59.562Z,28.90
2022-10-13T01:48:32.761Z,31.58
2022-10-13T01:49:11.133Z,30.95
2022-10-13T01:49:44.494Z,35.78
2022-10-13T01:50:18.295Z,24.65
2022-10-13T01:50:50.702Z,28.60
2022-10-13T01:51:25.143Z,27.75
2022-10-13T01:52:01.763Z,25.70
2022-10-13T01:52:37.240Z,29.10
2022-10-13T01:53:09.938Z,29.48
2022-10-13T01:53:42.751Z,29.42
2022-10-13T01:54:14.390Z,29.90
2022-10-13T01:54:52.796Z,30.98
2022-10-13T01:55:24.385Z,28.83
2022-10-13T01:55:58.755Z,27.00
2022-10-13T01:56:30.282Z,30.58
2022-10-13T01:57:01.886Z,28.95
2022-10-13T01:57:42.078Z,30.65
2022-10-13T01:58:13.618Z,29.70
2022-10-13T01:58:46.299Z,32.53
2022-10-13T01:59:17.803Z,32.20
2022-10-13T01:59:49.343Z,27.90
2022-10-13T02:01:13.069Z,31.40
2022-10-13T02:01:52.392Z,30.88
2022-10-13T02:02:31.694Z,27.80
2022-10-13T02:03:13.423Z,29.80
2022-10-13T02:03:59.958Z,29.48
2022-10-13T02:04:54.016Z,28.77
2022-10-13T02:05:50.714Z,29.05
2022-10-13T02:06:28.023Z,30.77
2022-10-13T02:07:06.995Z,28.27
2022-10-13T02:07:45.453Z,28.38
2022-10-13T02:08:29.612Z,28.85
2022-10-13T02:09:18.553Z,31.05
2022-10-13T02:10:27.323Z,30.02
2022-10-13T02:11:20.344Z,31.35
2022-10-13T02:11:58.669Z,29.88
2022-10-13T02:12:36.884Z,29.27
2022-10-13T02:13:12.553Z,28.63
2022-10-13T02:14:12.773Z,26.63
2022-10-13T02:14:46.941Z,29.67
2022-10-13T02:15:23.500Z,30.10
2022-10-13T02:15:58.924Z,31.23
2022-10-13T02:16:36.404Z,31.75
2022-10-13T02:17:07.968Z,29.88
2022-10-13T02:17:40.264Z,32.88
2022-10-13T02:18:14.912Z,33.17
2022-10-13T02:18:47.173Z,31.13
2022-10-13T02:19:19.048Z,31.73
2022-10-13T02:19:50.569Z,32.78
2022-10-13T02:20:22.763Z,33.70
2022-10-13T02:20:55.901Z,31.55
2022-10-13T02:21:28.207Z,30.85
2022-10-13T02:21:59.938Z,31.45
2022-10-13T02:22:37.252Z,30.70
2022-10-13T02:23:12.100Z,29.83
2022-10-13T02:23:44.676Z,32.10
2022-10-13T02:24:16.321Z,32.03
2022-10-13T02:24:47.974Z,27.52
2022-10-13T02:25:19.529Z,29.20
2022-10-13T02:25:51.170Z,28.90
2022-10-13T02:26:22.970Z,29.35
2022-10-13T02:26:54.716Z,29.52
2022-10-13T02:27:26.496Z,29.65
2022-10-13T02:28:00.764Z,27.77
2022-10-13T02:28:32.491Z,27.63
2022-10-13T02:29:12.363Z,25.17
2022-10-13T02:29:56.037Z,24.10
2022-10-13T02:30:30.231Z,25.67
2022-10-13T02:31:02.121Z,24.05
2022-10-13T02:31:33.642Z,27.27
2022-10-13T02:32:05.302Z,25.23
2022-10-13T02:32:37.146Z,25.95
2022-10-13T02:33:09.576Z,25.90
2022-10-13T02:33:41.140Z,27.05
2022-10-13T02:34:13.361Z,25.10
2022-10-13T02:34:44.885Z,28.65
2022-10-13T02:35:16.829Z,27.80
2022-10-13T02:35:48.326Z,24.25
2022-10-13T02:36:19.831Z,28.38
2022-10-13T02:36:51.537Z,24.42
2022-10-13T02:37:25.527Z,24.98
2022-10-13T02:37:57.057Z,24.75
2022-10-13T02:38:28.571Z,25.27
2022-10-13T02:39:00.378Z,26.40
2022-10-13T02:39:31.885Z,25.63
2022-10-13T02:40:03.854Z,26.08
2022-10-13T02:40:35.577Z,26.33
2022-10-13T02:41:07.095Z,25.38
2022-10-13T02:41:38.658Z,24.33
2022-10-13T02:42:10.385Z,25.52
2022-10-13T02:42:41.932Z,28.40
2022-10-13T02:43:13.454Z,25.27
2022-10-13T02:43:44.951Z,24.58
2022-10-13T02:44:16.458Z,26.70
2022-10-13T02:44:47.969Z,27.08
2022-10-13T02:45:19.695Z,27.50
2022-10-13T02:45:51.552Z,26.85
2022-10-13T02:46:23.111Z,28.63
2022-10-13T02:46:54.629Z,26.70
2022-10-13T02:47:26.170Z,27.15
2022-10-13T02:47:58.166Z,24.85
2022-10-13T02:48:29.790Z,27.80
2022-10-13T02:49:01.654Z,24.35
2022-10-13T02:49:33.163Z,25.15
2022-10-13T02:50:05.352Z,28.48
2022-10-13T02:50:36.883Z,28.02
2022-10-13T02:51:08.469Z,28.85
2022-10-13T02:51:40.550Z,27.00
2022-10-13T02:52:12.273Z,29.90
2022-10-13T02:52:43.770Z,27.02
2022-10-13T02:53:15.288Z,27.67
2022-10-13T02:53:46.988Z,26.50
2022-10-13T02:54:18.590Z,27.65
2022-10-13T02:54:50.091Z,25.65
2022-10-13T02:55:21.676Z,27.02
2022-10-13T02:55:53.202Z,23.90
2022-10-13T02:56:24.714Z,28.48
2022-10-13T02:56:56.236Z,27.27
2022-10-13T02:57:27.762Z,28.98
2022-10-13T02:57:59.287Z,27.40
2022-10-13T02:58:30.871Z,28.55
2022-10-13T02:59:02.402Z,26.85
2022-10-13T02:59:33.961Z,27.63
2022-10-13T03:00:07.225Z,28.20
2022-10-13T03:00:39.696Z,27.83
2022-10-13T03:01:14.121Z,30.42
2022-10-13T03:01:45.763Z,25.70
2022-10-13T03:02:18.008Z,26.23
2022-10-13T03:02:49.830Z,25.70
2022-10-13T03:03:21.329Z,30.38
2022-10-13T03:03:52.823Z,30.25
2022-10-13T03:04:24.345Z,28.70
2022-10-13T03:04:56.075Z,25.38
2022-10-13T03:05:27.605Z,25.65
2022-10-13T03:05:59.123Z,27.65
2022-10-13T03:06:30.687Z,24.50
2022-10-13T03:07:02.410Z,25.80
2022-10-13T03:07:33.951Z,29.35
2022-10-13T03:08:05.803Z,25.85
2022-10-13T03:08:37.617Z,26.38
2022-10-13T03:09:09.125Z,25.77
2022-10-13T03:09:40.667Z,25.75
2022-10-13T03:10:12.168Z,26.40
2022-10-13T03:10:43.679Z,27.77
2022-10-13T03:11:15.213Z,29.85
2022-10-13T03:11:46.763Z,24.38
2022-10-13T03:12:18.680Z,33.40
2022-10-13T03:12:50.855Z,25.52
2022-10-13T03:13:22.359Z,31.17
2022-10-13T03:13:54.224Z,27.33
2022-10-13T03:14:25.841Z,28.65
2022-10-13T03:14:57.470Z,29.58
2022-10-13T03:15:28.993Z,27.95
2022-10-13T03:16:00.509Z,27.25
2022-10-13T03:16:32.038Z,26.55
2022-10-13T03:17:03.819Z,30.60
2022-10-13T03:17:35.376Z,28.80
2022-10-13T03:18:06.923Z,28.65
2022-10-13T03:18:38.436Z,31.38
2022-10-13T03:19:10.162Z,27.30
2022-10-13T03:19:41.670Z,26.73
2022-10-13T03:20:13.199Z,27.95
2022-10-13T03:20:44.899Z,27.05
2022-10-13T03:21:16.395Z,29.25
2022-10-13T03:21:47.955Z,26.02
2022-10-13T03:22:19.835Z,27.30
2022-10-13T03:22:51.487Z,27.83
2022-10-13T03:23:22.997Z,27.88
2022-10-13T03:23:54.555Z,28.20
2022-10-13T03:24:26.094Z,29.23
2022-10-13T03:24:57.632Z,26.30
2022-10-13T03:25:29.138Z,26.48
2022-10-13T03:26:00.769Z,26.58
2022-10-13T03:26:33.442Z,27.48
2022-10-13T03:27:04.952Z,24.83
2022-10-13T03:27:36.473Z,27.35
2022-10-13T03:28:08.021Z,25.77
2022-10-13T03:28:39.770Z,26.27
2022-10-13T03:29:16.097Z,26.52
2022-10-13T03:29:47.633Z,25.95
2022-10-13T03:30:19.251Z,25.95
2022-10-13T03:30:51.296Z,26.00
2022-10-13T03:31:22.840Z,27.55
2022-10-13T03:31:54.349Z,24.80
2022-10-13T03:32:26.258Z,27.00
2022-10-13T03:32:57.773Z,28.05
2022-10-13T03:33:29.399Z,26.80
2022-10-13T03:34:00.922Z,26.88
2022-10-13T03:34:32.622Z,26.50
2022-10-13T03:35:06.398Z,25.75
2022-10-13T03:35:37.933Z,24.45
2022-10-13T03:36:11.227Z,27.42
2022-10-13T03:36:42.830Z,29.35
2022-10-13T03:37:14.347Z,28.95
2022-10-13T03:37:45.849Z,26.85
2022-10-13T03:38:17.349Z,25.60
2022-10-13T03:38:48.959Z,24.90
2022-10-13T03:39:20.459Z,27.80
2022-10-13T03:39:51.971Z,29.67
2022-10-13T03:40:23.760Z,26.70
2022-10-13T03:40:55.396Z,27.38
2022-10-13T03:41:26.935Z,26.65
2022-10-13T03:41:58.441Z,26.23
2022-10-13T03:42:29.976Z,26.67
2022-10-13T03:43:01.479Z,27.45
2022-10-13T03:43:33.369Z,26.02
2022-10-13T03:44:05.118Z,27.67
2022-10-13T03:44:36.614Z,28.85
2022-10-13T03:45:09.978Z,28.58
2022-10-13T03:45:41.500Z,28.58
2022-10-13T03:46:16.561Z,27.50
2022-10-13T03:46:48.053Z,25.65
2022-10-13T03:47:19.647Z,25.23
2022-10-13T03:47:51.152Z,27.25
2022-10-13T03:48:22.984Z,26.58
2022-10-13T03:48:54.879Z,25.00
2022-10-13T03:49:26.550Z,24.95
2022-10-13T03:49:58.105Z,28.30
2022-10-13T03:50:29.613Z,27.27
2022-10-13T03:51:08.409Z,25.98
2022-10-13T03:51:40.218Z,27.02
2022-10-13T03:52:11.854Z,28.27
2022-10-13T03:52:43.360Z,26.33
2022-10-13T03:53:15.494Z,25.08
2022-10-13T03:53:48.447Z,27.25
2022-10-13T03:54:20.118Z,23.65
2022-10-13T03:54:51.766Z,24.65
2022-10-13T03:55:23.270Z,28.05
2022-10-13T03:55:56.831Z,23.75
2022-10-13T03:56:28.695Z,27.45
2022-10-13T03:57:00.199Z,30.08
2022-10-13T03:57:31.717Z,25.15
2022-10-13T03:58:03.213Z,28.02
2022-10-13T03:58:35.159Z,25.23
2022-10-13T03:59:07.297Z,24.83
2022-10-13T03:59:42.102Z,28.77
2022-10-13T04:00:14.466Z,28.88
2022-10-13T04:00:46.324Z,29.75
2022-10-13T04:01:17.892Z,26.58
2022-10-13T04:01:49.560Z,27.52
2022-10-13T04:02:21.429Z,29.40
2022-10-13T04:02:53.070Z,28.38
2022-10-13T04:03:24.769Z,28.98
2022-10-13T04:03:57.829Z,31.38
2022-10-13T04:04:29.329Z,28.40
2022-10-13T04:05:00.822Z,29.20
2022-10-13T04:05:34.532Z,28.55
2022-10-13T04:06:06.854Z,30.13
2022-10-13T04:06:38.959Z,25.25
2022-10-13T04:07:10.479Z,26.23
2022-10-13T04:07:41.970Z,27.38
2022-10-13T04:08:14.358Z,26.05
2022-10-13T04:08:46.269Z,25.98
2022-10-13T04:09:17.832Z,26.27
2022-10-13T04:09:49.799Z,26.15
2022-10-13T04:10:21.295Z,26.40
2022-10-13T04:11:04.209Z,24.50
2022-10-13T04:11:35.754Z,23.67
2022-10-13T04:12:07.382Z,25.02
2022-10-13T04:12:38.947Z,24.58
2022-10-13T04:13:10.522Z,25.65
2022-10-13T04:13:42.617Z,23.85
2022-10-13T04:14:14.102Z,26.23
2022-10-13T04:14:45.600Z,26.00
2022-10-13T04:15:17.219Z,24.70
2022-10-13T04:15:48.725Z,26.88
2022-10-13T04:16:23.910Z,25.33
2022-10-13T04:16:55.449Z,23.15
2022-10-13T04:17:26.995Z,24.50
2022-10-13T04:17:58.492Z,23.77
2022-10-13T04:18:30.855Z,25.02
2022-10-13T04:19:04.754Z,25.20
2022-10-13T04:19:36.446Z,24.25
2022-10-13T04:20:08.711Z,25.05
2022-10-13T04:20:40.533Z,25.60
2022-10-13T04:21:15.033Z,28.88
2022-10-13T04:21:46.522Z,24.77
2022-10-13T04:22:18.437Z,24.73
2022-10-13T04:22:50.350Z,25.77
2022-10-13T04:23:21.893Z,24.38
2022-10-13T04:23:57.841Z,26.25
2022-10-13T04:24:29.374Z,23.33
2022-10-13T04:25:00.918Z,22.13
2022-10-13T04:25:35.463Z,23.40
2022-10-13T04:26:07.372Z,25.42
2022-10-13T04:26:39.697Z,23.00
2022-10-13T04:27:11.274Z,28.08
2022-10-13T04:27:42.895Z,24.10
2022-10-13T04:28:14.492Z,23.52
2022-10-13T04:28:47.794Z,24.63
2022-10-13T04:29:19.506Z,24.60
2022-10-13T04:29:51.018Z,25.67
2022-10-13T04:30:22.527Z,24.58
2022-10-13T04:30:54.072Z,23.67
2022-10-13T04:31:28.587Z,24.60
2022-10-13T04:32:00.392Z,22.65
2022-10-13T04:32:32.364Z,22.98
2022-10-13T04:33:03.979Z,22.83
2022-10-13T04:33:35.473Z,23.77
2022-10-13T04:34:07.790Z,25.15
2022-10-13T04:34:40.820Z,24.83
2022-10-13T04:35:12.357Z,24.83
2022-10-13T04:35:43.857Z,24.15
2022-10-13T04:36:16.038Z,24.27
2022-10-13T04:36:51.798Z,24.35
2022-10-13T04:37:24.155Z,23.25
2022-10-13T04:37:57.991Z,22.58
2022-10-13T04:38:29.510Z,22.00
2022-10-13T04:39:01.025Z,25.50
2022-10-13T04:39:32.644Z,23.25
2022-10-13T04:40:04.578Z,23.13
2022-10-13T04:40:36.229Z,24.25
2022-10-13T04:41:09.317Z,22.50
2022-10-13T04:41:40.824Z,24.50
2022-10-13T04:42:12.452Z,25.05
2022-10-13T04:42:43.977Z,22.23
2022-10-13T04:43:15.871Z,24.23
2022-10-13T04:43:49.531Z,23.65
2022-10-13T04:44:21.213Z,24.60
2022-10-13T04:44:52.751Z,24.63
2022-10-13T04:45:24.249Z,24.15
2022-10-13T04:46:09.264Z,24.58
2022-10-13T04:46:40.778Z,24.00
2022-10-13T04:47:12.283Z,24.08
2022-10-13T04:47:44.070Z,25.40
2022-10-13T04:48:15.583Z,24.00
2022-10-13T04:48:47.447Z,24.85
2022-10-13T04:49:19.019Z,24.50
2022-10-13T04:49:50.548Z,26.48
2022-10-13T04:50:22.125Z,27.30
2022-10-13T04:51:07.763Z,24.55
2022-10-13T04:51:39.449Z,25.13
2022-10-13T04:52:11.021Z,30.77
2022-10-13T04:52:42.895Z,23.30
2022-10-13T04:53:19.060Z,21.73
2022-10-13T04:53:56.227Z,24.55
2022-10-13T04:54:27.795Z,24.92
2022-10-13T04:54:59.391Z,24.08
2022-10-13T04:55:30.924Z,23.38
2022-10-13T04:56:08.510Z,25.25
2022-10-13T04:56:40.061Z,22.55
2022-10-13T04:57:11.601Z,23.63
2022-10-13T04:57:43.100Z,22.65
2022-10-13T04:58:14.603Z,24.50
2022-10-13T04:58:46.650Z,25.45
2022-10-13T04:59:18.147Z,22.50
2022-10-13T04:59:49.691Z,23.80
2022-10-13T05:00:21.499Z,26.35
2022-10-13T05:00:53.202Z,24.88
2022-10-13T05:01:25.392Z,24.60
2022-10-13T05:01:56.889Z,23.85
2022-10-13T05:02:28.431Z,22.98
2022-10-13T05:02:59.971Z,24.10
2022-10-13T05:03:31.657Z,24.77
2022-10-13T05:04:04.670Z,23.08
2022-10-13T05:04:36.495Z,25.33
2022-10-13T05:05:08.486Z,23.88
2022-10-13T05:05:40.140Z,23.42
2022-10-13T05:06:21.040Z,23.50
2022-10-13T05:07:16.882Z,22.85
2022-10-13T05:07:44.179Z,25.83
2022-10-13T05:08:15.734Z,22.08
2022-10-13T05:08:47.273Z,22.88
2022-10-13T05:09:19.051Z,24.92
2022-10-13T05:09:51.897Z,25.38
2022-10-13T05:10:23.427Z,24.63
2022-10-13T05:10:57.281Z,24.98
2022-10-13T05:11:29.866Z,22.77
2022-10-13T05:12:01.570Z,25.05
2022-10-13T05:12:33.158Z,26.45
2022-10-13T05:13:04.697Z,24.33
2022-10-13T05:13:37.038Z,23.05
2022-10-13T05:14:08.538Z,26.25
2022-10-13T05:14:40.042Z,24.23
2022-10-13T05:15:11.570Z,27.42
2022-10-13T05:15:43.071Z,23.13
2022-10-13T05:16:17.382Z,23.48
2022-10-13T05:16:49.244Z,24.23
2022-10-13T05:17:20.748Z,24.75
2022-10-13T05:17:52.283Z,26.70
2022-10-13T05:18:23.871Z,25.80
2022-10-13T05:18:55.476Z,23.33
2022-10-13T05:19:27.008Z,26.60
2022-10-13T05:19:58.531Z,22.60
2022-10-13T05:20:30.032Z,25.23
2022-10-13T05:21:13.649Z,25.30
2022-10-13T05:21:45.185Z,24.70
2022-10-13T05:22:17.069Z,22.92
2022-10-13T05:22:48.733Z,27.35
2022-10-13T05:23:20.230Z,21.10
2022-10-13T05:23:56.010Z,23.30
2022-10-13T05:24:36.727Z,23.55
2022-10-13T05:25:08.439Z,22.85
2022-10-13T05:25:40.014Z,23.05
2022-10-13T05:26:14.539Z,25.27
2022-10-13T05:26:46.049Z,21.95
2022-10-13T05:27:18.204Z,22.77
2022-10-13T05:27:49.771Z,23.38
2022-10-13T05:28:21.623Z,22.05
2022-10-13T05:28:53.291Z,21.02
2022-10-13T05:29:24.881Z,22.73
2022-10-13T05:29:56.438Z,23.33
2022-10-13T05:30:27.929Z,23.35
2022-10-13T05:31:09.675Z,20.83
2022-10-13T05:31:41.210Z,22.50
2022-10-13T05:32:12.762Z,21.30
2022-10-13T05:32:44.264Z,24.25
2022-10-13T05:33:15.753Z,25.25
2022-10-13T05:33:48.728Z,23.23
2022-10-13T05:34:20.282Z,22.10
2022-10-13T05:34:51.809Z,21.70
2022-10-13T05:35:23.367Z,19.52
2022-10-13T05:35:55.074Z,22.98
2022-10-13T05:36:32.086Z,23.52
2022-10-13T05:37:03.603Z,24.20
2022-10-13T05:37:35.106Z,21.40
2022-10-13T05:38:06.601Z,24.42
2022-10-13T05:38:38.614Z,23.23
2022-10-13T05:39:10.293Z,24.73
2022-10-13T05:39:41.783Z,27.23
2022-10-13T05:40:13.808Z,22.02
2022-10-13T05:40:45.311Z,23.08
2022-10-13T05:41:16.827Z,22.52
2022-10-13T05:41:48.334Z,22.55
2022-10-13T05:42:20.080Z,20.33
2022-10-13T05:42:52.635Z,21.80
2022-10-13T05:43:24.227Z,22.15
2022-10-13T05:44:04.442Z,20.90
2022-10-13T05:44:37.456Z,22.35
2022-10-13T05:45:11.059Z,22.73
2022-10-13T05:45:42.591Z,23.73
2022-10-13T05:46:14.577Z,20.70
2022-10-13T05:46:46.144Z,22.40
2022-10-13T05:47:17.669Z,22.63
2022-10-13T05:47:49.227Z,21.90
2022-10-13T05:48:20.724Z,23.42
2022-10-13T05:48:53.150Z,24.13
2022-10-13T05:49:24.709Z,23.50
2022-10-13T05:49:56.228Z,23.92
2022-10-13T05:50:28.427Z,26.45
2022-10-13T05:51:01.926Z,24.13
2022-10-13T05:51:42.949Z,22.83
2022-10-13T05:52:14.481Z,28.15
2022-10-13T05:52:46.414Z,25.00
2022-10-13T05:53:18.020Z,24.00
2022-10-13T05:54:20.087Z,25.00
2022-10-13T05:54:55.590Z,26.33
2022-10-13T05:55:27.229Z,21.40
2022-10-13T05:56:06.233Z,24.08
2022-10-13T05:56:46.268Z,23.05
2022-10-13T05:57:24.072Z,25.60
2022-10-13T05:57:55.627Z,21.77
2022-10-13T05:58:27.175Z,24.67
2022-10-13T05:59:02.343Z,24.27
2022-10-13T05:59:37.475Z,23.33
2022-10-13T06:00:17.117Z,21.55
2022-10-13T06:00:49.125Z,25.63
2022-10-13T06:01:24.750Z,25.77
2022-10-13T06:01:56.523Z,26.15
2022-10-13T06:02:34.843Z,26.42
2022-10-13T06:03:22.643Z,26.92
2022-10-13T06:03:58.686Z,26.13
2022-10-13T06:04:44.676Z,31.92
2022-10-13T06:05:18.275Z,28.05
2022-10-13T06:05:49.843Z,25.88
2022-10-13T06:06:25.818Z,27.05
2022-10-13T06:07:00.625Z,27.27
2022-10-13T06:07:32.161Z,25.17
2022-10-13T06:08:03.850Z,25.23
2022-10-13T06:08:36.034Z,25.55
2022-10-13T06:09:07.620Z,27.73
2022-10-13T06:09:40.195Z,27.92
2022-10-13T06:10:12.234Z,26.35
2022-10-13T06:10:43.971Z,26.02
2022-10-13T06:11:15.553Z,26.50
2022-10-13T06:11:47.204Z,23.55
2022-10-13T06:12:19.008Z,25.23
2022-10-13T06:12:50.828Z,24.63
2022-10-13T06:13:22.353Z,26.13
2022-10-13T06:13:53.861Z,24.48
2022-10-13T06:14:25.353Z,28.05
2022-10-13T06:14:56.886Z,24.77
2022-10-13T06:15:28.562Z,24.67
2022-10-13T06:16:00.359Z,27.13
2022-10-13T06:16:31.992Z,25.52
2022-10-13T06:17:04.235Z,24.05
2022-10-13T06:17:37.954Z,24.45
2022-10-13T06:18:10.430Z,25.55
2022-10-13T06:18:41.978Z,23.23
2022-10-13T06:19:13.555Z,24.40
2022-10-13T06:19:45.429Z,24.00
2022-10-13T06:20:17.063Z,23.05
2022-10-13T06:20:48.644Z,26.15
2022-10-13T06:21:20.161Z,23.27
2022-10-13T06:21:52.041Z,24.58
2022-10-13T06:22:23.617Z,23.67
2022-10-13T06:22:56.203Z,23.98
2022-10-13T06:23:27.703Z,25.60
2022-10-13T06:23:59.228Z,24.60
2022-10-13T06:24:30.885Z,25.90
2022-10-13T06:25:03.815Z,25.27
2022-10-13T06:25:36.014Z,24.95
2022-10-13T06:26:09.117Z,23.48
2022-10-13T06:26:41.255Z,24.20
2022-10-13T06:27:12.773Z,22.92
2022-10-13T06:27:44.319Z,24.45
2022-10-13T06:28:16.358Z,23.67
2022-10-13T06:28:51.084Z,24.95
2022-10-13T06:29:24.085Z,23.70
2022-10-13T06:29:55.795Z,25.33
2022-10-13T06:30:28.038Z,25.23
2022-10-13T06:30:59.559Z,24.20
2022-10-13T06:31:31.066Z,23.00
2022-10-13T06:32:02.732Z,24.70
2022-10-13T06:32:34.341Z,26.35
2022-10-13T06:33:05.879Z,24.98
2022-10-13T06:33:37.470Z,24.85
2022-10-13T06:34:09.012Z,27.02
2022-10-13T06:34:40.542Z,23.17
2022-10-13T06:35:12.078Z,23.58
2022-10-13T06:35:43.582Z,28.77
2022-10-13T06:36:15.133Z,24.75
2022-10-13T06:36:47.228Z,26.05
2022-10-13T06:37:20.340Z,25.45
2022-10-13T06:37:54.965Z,22.98
2022-10-13T06:38:26.470Z,25.77
2022-10-13T06:38:57.972Z,25.00
2022-10-13T06:39:29.478Z,26.30
2022-10-13T06:40:00.991Z,25.02
2022-10-13T06:40:32.537Z,27.13
2022-10-13T06:41:05.364Z,21.50
2022-10-13T06:41:36.899Z,24.08
2022-10-13T06:42:08.610Z,23.50
2022-10-13T06:42:40.366Z,25.50
2022-10-13T06:43:11.974Z,26.80
2022-10-13T06:43:44.003Z,24.48
2022-10-13T06:44:15.514Z,26.40
2022-10-13T06:44:47.076Z,22.77
2022-10-13T06:45:19.562Z,24.77
2022-10-13T06:45:51.082Z,26.02
2022-10-13T06:46:22.659Z,23.40
2022-10-13T06:46:54.164Z,24.85
2022-10-13T06:47:25.922Z,23.42
2022-10-13T06:47:57.447Z,21.60
2022-10-13T06:48:29.273Z,23.92
2022-10-13T06:49:00.844Z,24.23
2022-10-13T06:49:32.472Z,21.65
2022-10-13T06:50:04.207Z,24.75
2022-10-13T06:50:39.430Z,23.73
2022-10-13T06:51:13.615Z,23.23
2022-10-13T06:51:45.145Z,25.02
2022-10-13T06:52:16.816Z,24.08
2022-10-13T06:52:48.494Z,25.42
2022-10-13T06:53:20.414Z,23.25
2022-10-13T06:53:51.946Z,24.03
2022-10-13T06:54:23.442Z,24.80
2022-10-13T06:54:54.968Z,22.90
2022-10-13T06:55:26.507Z,23.15
2022-10-13T06:55:59.064Z,24.85
2022-10-13T06:56:30.860Z,24.55
2022-10-13T06:57:05.237Z,24.55
2022-10-13T06:57:37.061Z,22.92
2022-10-13T06:58:08.589Z,19.70
2022-10-13T06:58:40.757Z,24.15
2022-10-13T06:59:12.325Z,21.13
2022-10-13T06:59:44.482Z,21.80
2022-10-13T07:00:16.292Z,22.30
2022-10-13T07:00:47.863Z,20.90
2022-10-13T07:01:20.043Z,20.33
2022-10-13T07:01:52.147Z,24.42
2022-10-13T07:02:23.665Z,19.98
2022-10-13T07:02:55.223Z,18.65
2022-10-13T07:03:27.106Z,21.10
2022-10-13T07:03:58.953Z,20.92
2022-10-13T07:04:30.479Z,19.33
2022-10-13T07:05:02.922Z,22.40
2022-10-13T07:05:34.436Z,18.60
2022-10-13T07:06:07.025Z,23.27
2022-10-13T07:06:38.956Z,22.23
2022-10-13T07:07:10.567Z,22.95
2022-10-13T07:07:42.080Z,20.42
2022-10-13T07:08:14.084Z,23.77
2022-10-13T07:08:45.799Z,21.80
2022-10-13T07:09:17.703Z,20.50
2022-10-13T07:09:49.496Z,20.90
2022-10-13T07:10:21.268Z,19.17
2022-10-13T07:10:52.789Z,19.70
2022-10-13T07:11:24.334Z,20.08
2022-10-13T07:11:55.914Z,16.67
2022-10-13T07:12:27.482Z,18.40
2022-10-13T07:12:59.063Z,16.70
2022-10-13T07:13:33.590Z,17.40
2022-10-13T07:14:07.973Z,18.25
2022-10-13T07:14:41.696Z,16.20
2022-10-13T07:15:15.441Z,19.77
2022-10-13T07:15:47.105Z,19.52
2022-10-13T07:16:18.643Z,18.83